createdAt,value
2018-09-18T00:01:32.753Z,91.10
2018-09-18T00:04:01.246Z,91.40
2018-09-18T00:06:29.821Z,91.40
2018-09-18T00:08:58.314Z,91.70
2018-09-18T00:11:26.768Z,91.80
2018-09-18T00:13:55.308Z,92.00
2018-09-18T00:16:23.781Z,92.20
2018-09-18T00:18:52.346Z,92.30
2018-09-18T00:21:20.808Z,92.40
2018-09-18T00:23:49.323Z,92.30
2018-09-18T00:26:17.810Z,92.30
2018-09-18T00:28:46.395Z,92.50
2018-09-18T00:31:14.877Z,92.50
2018-09-18T00:33:43.406Z,92.60
2018-09-18T00:36:11.896Z,92.50
2018-09-18T00:38:40.405Z,92.50
2018-09-18T00:41:08.912Z,92.60
2018-09-18T00:43:37.442Z,92.70
2018-09-18T00:46:05.957Z,93.00
2018-09-18T00:48:34.434Z,93.00
2018-09-18T00:51:02.873Z,93.10
2018-09-18T00:53:31.351Z,93.20
2018-09-18T00:55:59.807Z,93.30
2018-09-18T00:58:28.298Z,93.50
2018-09-18T01:00:56.777Z,93.70
2018-09-18T01:03:25.283Z,93.80
2018-09-18T01:05:53.725Z,93.80
2018-09-18T01:08:22.323Z,94.10
2018-09-18T01:10:50.838Z,94.20
2018-09-18T01:13:19.351Z,94.40
2018-09-18T01:15:47.826Z,94.60
2018-09-18T01:18:16.315Z,94.70
2018-09-18T01:20:44.821Z,95.00
2018-09-18T01:23:13.258Z,95.20
2018-09-18T01:25:41.731Z,95.20
2018-09-18T01:28:10.173Z,95.30
2018-09-18T01:30:38.665Z,95.30
2018-09-18T01:33:07.135Z,95.30
2018-09-18T01:35:35.633Z,95.30
2018-09-18T01:38:04.122Z,95.30
2018-09-18T01:40:32.625Z,95.30
2018-09-18T01:43:01.188Z,95.30
2018-09-18T01:45:29.688Z,95.50
2018-09-18T01:47:58.180Z,95.70
2018-09-18T01:50:26.796Z,96.00
2018-09-18T01:52:55.276Z,96.10
2018-09-18T01:55:23.841Z,96.20
2018-09-18T01:57:52.324Z,96.30
2018-09-18T02:00:20.871Z,96.30
2018-09-18T02:02:49.302Z,96.30
2018-09-18T02:05:17.986Z,96.30
2018-09-18T02:07:46.445Z,96.30
2018-09-18T02:10:14.929Z,96.70
2018-09-18T02:12:43.410Z,96.70
2018-09-18T02:15:11.870Z,96.70
2018-09-18T02:17:40.367Z,96.60
2018-09-18T02:20:08.818Z,96.70
2018-09-18T02:22:37.319Z,96.70
2018-09-18T02:25:05.820Z,96.90
2018-09-18T02:27:34.323Z,96.90
2018-09-18T02:30:02.810Z,97.00
2018-09-18T02:32:31.338Z,97.20
2018-09-18T02:34:59.794Z,97.40
2018-09-18T02:37:28.302Z,97.40
2018-09-18T02:39:56.776Z,97.70
2018-09-18T02:42:25.305Z,97.90
2018-09-18T02:44:53.790Z,97.90
2018-09-18T02:47:22.297Z,98.00
2018-09-18T02:49:50.740Z,97.90
2018-09-18T02:52:19.644Z,98.00
2018-09-18T02:54:48.277Z,98.10
2018-09-18T02:57:16.792Z,98.10
2018-09-18T02:59:45.265Z,98.20
2018-09-18T03:02:13.736Z,98.30
2018-09-18T03:04:42.236Z,98.60
2018-09-18T03:07:10.773Z,98.80
2018-09-18T03:09:39.262Z,99.00
2018-09-18T03:12:07.915Z,99.10
2018-09-18T03:14:36.463Z,99.30
2018-09-18T03:17:05.011Z,99.20
2018-09-18T03:19:33.523Z,99.50
2018-09-18T03:22:01.973Z,99.60
2018-09-18T03:24:30.451Z,99.70
2018-09-18T03:26:58.982Z,99.90
2018-09-18T03:29:27.470Z,99.90
2018-09-18T03:31:55.931Z,99.90
2018-09-18T03:34:24.394Z,99.80
2018-09-18T03:36:52.870Z,99.80
2018-09-18T03:39:21.315Z,99.90
2018-09-18T03:41:49.803Z,99.90
2018-09-18T03:44:18.257Z,99.90
2018-09-18T03:46:46.712Z,99.90
2018-09-18T03:49:15.243Z,99.90
2018-09-18T03:51:43.678Z,99.90
2018-09-18T03:54:12.216Z,99.90
2018-09-18T03:56:40.726Z,99.90
2018-09-18T03:59:09.210Z,99.90
2018-09-18T04:01:37.888Z,99.90
2018-09-18T04:04:06.433Z,99.90
2018-09-18T04:06:34.948Z,99.90
2018-09-18T04:09:04.647Z,99.90
2018-09-18T04:11:33.205Z,99.90
2018-09-18T04:14:01.643Z,99.90
2018-09-18T04:16:30.112Z,99.90
2018-09-18T04:18:58.550Z,99.90
2018-09-18T04:21:32.407Z,99.90
2018-09-18T04:24:00.843Z,99.90
2018-09-18T04:26:29.268Z,99.90
2018-09-18T04:28:57.930Z,99.90
2018-09-18T04:31:26.377Z,99.90
2018-09-18T04:33:54.904Z,99.90
2018-09-18T04:36:23.750Z,99.90
2018-09-18T04:38:52.235Z,99.90
2018-09-18T04:41:20.656Z,99.90
2018-09-18T04:43:49.277Z,99.90
2018-09-18T04:46:17.713Z,99.90
2018-09-18T04:48:46.211Z,99.90
2018-09-18T04:51:14.666Z,99.90
2018-09-18T04:53:43.687Z,99.90
2018-09-18T04:56:12.156Z,99.90
2018-09-18T04:58:40.642Z,99.90
2018-09-18T05:01:09.207Z,99.90
2018-09-18T05:03:37.670Z,99.90
2018-09-18T05:06:06.239Z,99.90
2018-09-18T05:08:34.766Z,99.90
2018-09-18T05:11:03.212Z,99.90
2018-09-18T05:13:31.650Z,99.90
2018-09-18T05:16:00.244Z,99.90
2018-09-18T05:18:28.677Z,99.90
2018-09-18T05:20:57.157Z,99.90
2018-09-18T05:23:25.601Z,99.90
2018-09-18T05:25:54.097Z,99.90
2018-09-18T05:28:22.522Z,99.90
2018-09-18T05:30:50.993Z,99.90
2018-09-18T05:33:19.444Z,99.90
2018-09-18T05:35:48.129Z,99.90
2018-09-18T05:38:16.576Z,99.90
2018-09-18T05:40:45.084Z,99.90
2018-09-18T05:43:13.509Z,99.90
2018-09-18T05:45:41.994Z,99.90
2018-09-18T05:48:12.529Z,99.90
2018-09-18T05:50:41.469Z,99.90
2018-09-18T05:53:10.426Z,99.90
2018-09-18T05:55:38.894Z,99.90
2018-09-18T05:58:07.337Z,99.90
2018-09-18T06:00:35.806Z,99.90
2018-09-18T06:03:04.445Z,99.90
2018-09-18T06:05:32.912Z,99.90
2018-09-18T06:08:01.411Z,99.90
2018-09-18T06:10:29.915Z,99.90
2018-09-18T06:12:58.356Z,99.90
2018-09-18T06:15:27.286Z,99.90
2018-09-18T06:17:55.730Z,99.90
2018-09-18T06:20:24.181Z,99.90
2018-09-18T06:22:52.656Z,99.90
2018-09-18T06:25:21.091Z,99.90
2018-09-18T06:27:49.571Z,99.90
2018-09-18T06:30:18.015Z,99.90
2018-09-18T06:32:46.485Z,99.90
2018-09-18T06:35:15.331Z,99.90
2018-09-18T06:37:43.805Z,99.80
2018-09-18T06:40:12.315Z,99.70
2018-09-18T06:42:40.803Z,99.30
2018-09-18T06:45:09.265Z,98.90
2018-09-18T06:47:37.744Z,98.90
2018-09-18T06:50:06.246Z,98.80
2018-09-18T06:52:34.725Z,98.60
2018-09-18T06:55:03.165Z,98.50
2018-09-18T06:57:31.626Z,98.10
2018-09-18T07:00:00.106Z,97.80
2018-09-18T07:02:28.585Z,97.60
2018-09-18T07:04:57.043Z,97.30
2018-09-18T07:07:25.557Z,97.10
2018-09-18T07:09:54.018Z,96.90
2018-09-18T07:12:22.517Z,96.40
2018-09-18T07:14:50.949Z,96.50
2018-09-18T07:17:19.495Z,96.40
2018-09-18T07:19:47.992Z,96.40
2018-09-18T07:22:16.560Z,96.20
2018-09-18T07:24:45.009Z,96.40
2018-09-18T07:27:13.430Z,96.20
2018-09-18T07:29:41.924Z,96.40
2018-09-18T07:32:10.356Z,96.50
2018-09-18T07:34:38.826Z,96.00
2018-09-18T07:37:07.269Z,95.70
2018-09-18T07:39:35.740Z,95.70
2018-09-18T07:42:04.182Z,95.60
2018-09-18T07:44:32.650Z,95.30
2018-09-18T07:47:01.081Z,95.00
2018-09-18T07:49:29.563Z,94.70
2018-09-18T07:51:58.222Z,94.60
2018-09-18T07:54:26.664Z,94.10
2018-09-18T07:56:55.105Z,93.80
2018-09-18T07:59:23.574Z,93.80
2018-09-18T08:01:52.085Z,93.60
2018-09-18T08:04:20.603Z,93.50
2018-09-18T08:06:49.130Z,92.70
2018-09-18T08:09:17.582Z,92.50
2018-09-18T08:11:46.011Z,92.10
2018-09-18T08:14:14.485Z,91.60
2018-09-18T08:16:42.938Z,91.50
2018-09-18T08:19:11.512Z,90.90
2018-09-18T08:21:39.910Z,90.60
2018-09-18T08:24:08.434Z,89.70
2018-09-18T08:26:36.923Z,89.30
2018-09-18T08:29:05.437Z,89.50
2018-09-18T08:31:33.868Z,89.00
2018-09-18T08:34:02.351Z,88.00
2018-09-18T08:36:31.142Z,87.60
2018-09-18T08:38:59.613Z,86.90
2018-09-18T08:41:29.107Z,86.50
2018-09-18T08:43:57.647Z,85.40
2018-09-18T08:46:26.107Z,84.70
2018-09-18T08:48:56.226Z,84.20
2018-09-18T08:51:24.824Z,83.70
2018-09-18T08:53:53.330Z,82.20
2018-09-18T08:56:21.778Z,79.90
2018-09-18T08:58:50.796Z,79.60
2018-09-18T09:01:19.297Z,77.60
2018-09-18T09:03:48.008Z,77.10
2018-09-18T09:06:16.525Z,76.20
2018-09-18T09:08:45.148Z,74.70
2018-09-18T09:11:13.546Z,74.00
2018-09-18T09:13:42.049Z,72.80
2018-09-18T09:16:10.496Z,72.60
2018-09-18T09:18:39.100Z,70.00
2018-09-18T09:21:07.523Z,68.40
2018-09-18T09:23:35.987Z,67.90
2018-09-18T09:26:04.422Z,65.20
2018-09-18T09:28:32.912Z,62.90
2018-09-18T09:31:01.335Z,62.30
2018-09-18T09:33:29.810Z,60.00
2018-09-18T09:35:58.249Z,57.90
2018-09-18T09:38:26.729Z,56.70
2018-09-18T09:40:55.165Z,55.10
2018-09-18T09:43:23.681Z,54.60
2018-09-18T09:45:52.119Z,54.20
2018-09-18T09:48:20.591Z,53.40
2018-09-18T09:50:49.049Z,52.40
2018-09-18T09:53:17.478Z,52.30
2018-09-18T09:55:45.941Z,51.20
2018-09-18T09:58:14.402Z,49.30
2018-09-18T10:00:48.403Z,49.80
2018-09-18T10:03:16.843Z,49.30
2018-09-18T10:05:45.302Z,48.70
2018-09-18T10:08:13.769Z,48.20
2018-09-18T10:10:42.266Z,48.90
2018-09-18T10:13:10.702Z,47.90
2018-09-18T10:15:39.222Z,46.70
2018-09-18T10:18:07.717Z,46.40
2018-09-18T10:20:36.197Z,45.50
2018-09-18T10:23:04.658Z,44.90
2018-09-18T10:25:33.122Z,45.60
2018-09-18T10:28:01.537Z,44.50
2018-09-18T10:30:30.019Z,44.00
2018-09-18T10:32:58.620Z,44.30
2018-09-18T10:35:27.085Z,44.00
2018-09-18T10:37:55.542Z,44.10
2018-09-18T10:40:24.025Z,44.60
2018-09-18T10:42:52.587Z,43.20
2018-09-18T10:45:21.076Z,42.10
2018-09-18T10:47:49.554Z,41.40
2018-09-18T10:50:18.020Z,42.00
2018-09-18T10:52:46.477Z,42.20
2018-09-18T10:55:15.083Z,41.70
2018-09-18T10:57:43.523Z,39.40
2018-09-18T11:00:12.009Z,38.60
2018-09-18T11:02:40.480Z,37.70
2018-09-18T11:05:09.009Z,38.30
2018-09-18T11:07:37.596Z,38.10
2018-09-18T11:10:06.293Z,37.00
2018-09-18T11:12:34.767Z,37.10
2018-09-18T11:15:03.356Z,38.40
2018-09-18T11:17:31.773Z,35.60
2018-09-18T11:20:00.299Z,37.10
2018-09-18T11:22:28.883Z,35.50
2018-09-18T11:24:57.293Z,34.30
2018-09-18T11:27:25.729Z,34.00
2018-09-18T11:29:54.211Z,34.90
2018-09-18T11:32:22.658Z,34.40
2018-09-18T11:34:51.142Z,35.20
2018-09-18T11:37:19.580Z,36.30
2018-09-18T11:39:48.038Z,36.00
2018-09-18T11:42:16.478Z,36.50
2018-09-18T11:44:44.946Z,36.20
2018-09-18T11:47:13.401Z,36.70
2018-09-18T11:49:41.932Z,37.10
2018-09-18T11:52:10.558Z,37.30
2018-09-18T11:54:39.050Z,37.30
2018-09-18T11:57:07.716Z,36.80
2018-09-18T11:59:36.272Z,36.60
2018-09-18T12:02:04.799Z,37.00
2018-09-18T12:04:33.262Z,36.70
2018-09-18T12:07:01.756Z,35.10
2018-09-18T12:09:30.225Z,35.40
2018-09-18T12:11:58.695Z,35.00
2018-09-18T12:14:27.162Z,35.80
2018-09-18T12:16:55.623Z,35.50
2018-09-18T12:19:24.113Z,35.10
2018-09-18T12:21:52.591Z,36.10
2018-09-18T12:24:21.074Z,34.90
2018-09-18T12:26:49.534Z,33.10
2018-09-18T12:29:18.439Z,33.30
2018-09-18T12:31:46.930Z,33.40
2018-09-18T12:34:15.372Z,32.60
2018-09-18T12:36:43.878Z,32.10
2018-09-18T12:39:12.311Z,31.90
2018-09-18T12:41:41.274Z,32.40
2018-09-18T12:44:09.770Z,32.60
2018-09-18T12:46:38.248Z,32.80
2018-09-18T12:49:06.768Z,32.20
2018-09-18T12:51:35.183Z,31.90
2018-09-18T12:54:03.649Z,32.70
2018-09-18T12:56:32.134Z,32.70
2018-09-18T12:59:00.624Z,31.40
2018-09-18T13:01:29.063Z,31.80
2018-09-18T13:03:58.361Z,31.70
2018-09-18T13:06:26.975Z,30.20
2018-09-18T13:08:55.745Z,29.90
2018-09-18T13:11:24.348Z,30.00
2018-09-18T13:13:52.813Z,30.50
2018-09-18T13:16:21.323Z,30.20
2018-09-18T13:18:49.740Z,29.60
2018-09-18T13:21:18.230Z,30.00
2018-09-18T13:23:46.673Z,30.20
2018-09-18T13:26:15.158Z,29.70
2018-09-18T13:28:43.612Z,29.70
2018-09-18T13:31:12.155Z,30.00
2018-09-18T13:33:40.574Z,30.30
2018-09-18T13:36:09.042Z,30.40
2018-09-18T13:38:37.488Z,30.10
2018-09-18T13:41:06.062Z,30.10
2018-09-18T13:43:34.411Z,30.30
2018-09-18T13:46:02.968Z,31.00
2018-09-18T13:48:31.427Z,31.20
2018-09-18T13:50:59.914Z,30.60
2018-09-18T13:53:28.353Z,30.00
2018-09-18T13:55:56.840Z,30.00
2018-09-18T13:58:25.318Z,30.00
2018-09-18T14:00:53.837Z,30.40
2018-09-18T14:03:22.266Z,29.90
2018-09-18T14:05:50.754Z,29.80
2018-09-18T14:08:19.328Z,29.30
2018-09-18T14:10:47.875Z,30.30
2018-09-18T14:13:16.451Z,29.40
2018-09-18T14:15:44.987Z,28.30
2018-09-18T14:18:14.276Z,28.70
2018-09-18T14:20:42.938Z,29.00
2018-09-18T14:23:11.521Z,28.80
2018-09-18T14:25:40.006Z,28.80
2018-09-18T14:28:08.566Z,28.80
2018-09-18T14:30:37.035Z,28.80
2018-09-18T14:33:05.488Z,28.90
2018-09-18T14:35:34.039Z,29.30
2018-09-18T14:38:02.517Z,29.50
2018-09-18T14:40:31.091Z,29.40
2018-09-18T14:42:59.467Z,28.90
2018-09-18T14:45:28.001Z,30.10
2018-09-18T14:47:56.395Z,29.70
2018-09-18T14:50:24.862Z,29.60
2018-09-18T14:52:53.314Z,30.10
2018-09-18T14:55:21.787Z,30.60
2018-09-18T14:57:50.225Z,31.00
2018-09-18T15:00:18.705Z,31.50
2018-09-18T15:02:47.123Z,32.00
2018-09-18T15:05:15.612Z,31.70
2018-09-18T15:07:44.150Z,32.10
2018-09-18T15:10:12.610Z,32.90
2018-09-18T15:12:41.155Z,32.80
2018-09-18T15:15:09.592Z,32.80
2018-09-18T15:17:38.065Z,32.60
2018-09-18T15:20:07.060Z,32.80
2018-09-18T15:22:35.518Z,32.80
2018-09-18T15:25:04.008Z,32.40
2018-09-18T15:27:32.574Z,32.90
2018-09-18T15:30:01.010Z,32.40
2018-09-18T15:32:29.554Z,31.90
2018-09-18T15:34:58.206Z,32.30
2018-09-18T15:37:26.802Z,32.50
2018-09-18T15:39:55.270Z,32.80
2018-09-18T15:42:23.714Z,32.90
2018-09-18T15:44:52.217Z,33.40
2018-09-18T15:47:20.680Z,33.50
2018-09-18T15:49:49.178Z,32.90
2018-09-18T15:52:17.627Z,33.00
2018-09-18T15:54:46.107Z,32.90
2018-09-18T15:57:14.723Z,32.90
2018-09-18T15:59:43.231Z,33.10
2018-09-18T16:02:11.690Z,32.60
2018-09-18T16:04:40.234Z,32.80
2018-09-18T16:07:08.696Z,32.60
2018-09-18T16:09:38.665Z,32.50
2018-09-18T16:12:07.119Z,32.30
2018-09-18T16:14:35.631Z,32.50
2018-09-18T16:17:04.148Z,32.40
2018-09-18T16:19:32.554Z,32.80
2018-09-18T16:22:01.008Z,32.60
2018-09-18T16:24:29.509Z,32.50
2018-09-18T16:26:57.961Z,32.20
2018-09-18T16:29:26.427Z,32.50
2018-09-18T16:31:54.879Z,32.30
2018-09-18T16:34:23.443Z,32.70
2018-09-18T16:36:51.929Z,32.50
2018-09-18T16:39:20.422Z,33.10
2018-09-18T16:41:48.867Z,33.20
2018-09-18T16:44:17.387Z,33.10
2018-09-18T16:46:45.857Z,33.50
2018-09-18T16:49:14.336Z,34.40
2018-09-18T16:51:42.876Z,34.30
2018-09-18T16:54:11.372Z,34.60
2018-09-18T16:56:39.840Z,35.30
2018-09-18T16:59:08.356Z,35.40
2018-09-18T17:01:36.835Z,35.90
2018-09-18T17:04:05.342Z,36.90
2018-09-18T17:06:34.030Z,37.80
2018-09-18T17:09:02.516Z,36.90
2018-09-18T17:11:30.977Z,36.00
2018-09-18T17:13:59.507Z,37.20
2018-09-18T17:16:27.942Z,37.40
2018-09-18T17:18:56.420Z,38.10
2018-09-18T17:21:24.887Z,38.60
2018-09-18T17:23:53.432Z,38.90
2018-09-18T17:26:22.008Z,39.40
2018-09-18T17:28:50.747Z,39.60
2018-09-18T17:31:19.028Z,40.40
2018-09-18T17:33:47.859Z,40.60
2018-09-18T17:36:16.294Z,41.20
2018-09-18T17:38:44.807Z,41.60
2018-09-18T17:41:13.511Z,42.50
2018-09-18T17:43:41.971Z,42.60
2018-09-18T17:46:10.456Z,43.20
2018-09-18T17:48:38.978Z,43.60
2018-09-18T17:51:07.500Z,44.10
2018-09-18T17:53:36.020Z,44.30
2018-09-18T17:56:04.631Z,45.70
2018-09-18T17:58:33.070Z,44.90
2018-09-18T18:01:01.588Z,45.10
2018-09-18T18:03:30.037Z,45.00
2018-09-18T18:05:58.631Z,44.70
2018-09-18T18:08:27.366Z,45.00
2018-09-18T18:10:55.927Z,45.30
2018-09-18T18:13:24.800Z,45.50
2018-09-18T18:15:53.268Z,45.70
2018-09-18T18:18:21.727Z,46.20
2018-09-18T18:20:50.338Z,46.70
2018-09-18T18:23:18.765Z,47.60
2018-09-18T18:25:47.224Z,48.00
2018-09-18T18:28:15.744Z,48.10
2018-09-18T18:30:44.233Z,49.00
2018-09-18T18:33:12.974Z,48.70
2018-09-18T18:35:41.514Z,49.80
2018-09-18T18:38:09.866Z,50.10
2018-09-18T18:40:38.454Z,50.50
2018-09-18T18:43:06.866Z,50.90
2018-09-18T18:45:35.350Z,51.10
2018-09-18T18:48:03.975Z,51.50
2018-09-18T18:50:32.449Z,51.80
2018-09-18T18:53:00.964Z,52.10
2018-09-18T18:55:29.490Z,52.30
2018-09-18T18:57:57.959Z,52.40
2018-09-18T19:00:26.573Z,52.60
2018-09-18T19:02:55.038Z,52.90
2018-09-18T19:05:23.468Z,53.10
2018-09-18T19:07:51.961Z,53.50
2018-09-18T19:10:20.458Z,53.60
2018-09-18T19:12:48.933Z,53.70
2018-09-18T19:15:17.428Z,54.50
2018-09-18T19:17:45.919Z,54.60
2018-09-18T19:20:14.395Z,55.00
2018-09-18T19:22:43.232Z,55.70
2018-09-18T19:25:11.785Z,55.50
2018-09-18T19:27:40.300Z,55.20
2018-09-18T19:30:09.367Z,55.60
2018-09-18T19:32:38.553Z,55.80
2018-09-18T19:35:08.224Z,55.90
2018-09-18T19:37:37.114Z,56.30
2018-09-18T19:40:05.960Z,56.30
2018-09-18T19:42:34.436Z,56.40
2018-09-18T19:45:02.983Z,56.50
2018-09-18T19:47:31.593Z,56.60
2018-09-18T19:50:00.529Z,57.30
2018-09-18T19:52:29.395Z,57.70
2018-09-18T19:54:58.666Z,57.70
2018-09-18T19:57:27.697Z,57.90
2018-09-18T19:59:56.182Z,58.00
2018-09-18T20:02:24.610Z,58.10
2018-09-18T20:04:53.168Z,58.50
2018-09-18T20:07:21.646Z,58.70
2018-09-18T20:09:50.169Z,59.60
2018-09-18T20:12:18.617Z,59.80
2018-09-18T20:14:47.158Z,60.20
2018-09-18T20:17:16.005Z,60.40
2018-09-18T20:19:44.497Z,60.90
2018-09-18T20:22:12.975Z,61.70
2018-09-18T20:24:41.475Z,62.80
2018-09-18T20:27:09.966Z,63.50
2018-09-18T20:29:38.643Z,63.40
2018-09-18T20:32:07.972Z,63.80
2018-09-18T20:34:36.509Z,64.70
2018-09-18T20:37:04.984Z,65.00
2018-09-18T20:39:33.505Z,64.80
2018-09-18T20:42:01.937Z,65.40
2018-09-18T20:44:30.397Z,66.10
2018-09-18T20:46:59.082Z,66.80
2018-09-18T20:49:27.626Z,66.30
2018-09-18T20:51:56.128Z,65.90
2018-09-18T20:54:24.610Z,66.80
2018-09-18T20:56:53.068Z,69.20
2018-09-18T20:59:21.658Z,69.20
2018-09-18T21:01:50.043Z,67.50
2018-09-18T21:04:18.613Z,67.40
2018-09-18T21:06:47.090Z,67.60
2018-09-18T21:09:15.805Z,68.20
2018-09-18T21:11:44.357Z,68.00
2018-09-18T21:14:12.862Z,68.90
2018-09-18T21:16:41.296Z,69.40
2018-09-18T21:19:09.827Z,69.80
2018-09-18T21:21:38.291Z,70.30
2018-09-18T21:24:06.790Z,71.20
2018-09-18T21:26:35.216Z,72.00
2018-09-18T21:29:03.690Z,72.60
2018-09-18T21:31:32.198Z,74.00
2018-09-18T21:34:00.681Z,74.70
2018-09-18T21:36:29.158Z,75.20
2018-09-18T21:38:57.687Z,75.00
2018-09-18T21:41:26.164Z,75.00
2018-09-18T21:43:54.828Z,74.80
2018-09-18T21:46:23.285Z,74.60
2018-09-18T21:48:51.786Z,75.90
2018-09-18T21:51:20.427Z,79.70
2018-09-18T21:53:48.935Z,80.20
2018-09-18T21:56:17.390Z,80.00
2018-09-18T21:58:45.848Z,80.40
2018-09-18T22:01:14.369Z,80.30
2018-09-18T22:03:42.844Z,80.20
2018-09-18T22:06:11.349Z,80.50
2018-09-18T22:08:39.814Z,80.20
2018-09-18T22:11:08.318Z,80.20
2018-09-18T22:13:36.764Z,80.70
2018-09-18T22:16:05.280Z,81.70
2018-09-18T22:18:33.962Z,82.60
2018-09-18T22:21:02.420Z,82.30
2018-09-18T22:23:30.863Z,82.90
2018-09-18T22:25:59.413Z,85.30
2018-09-18T22:28:27.882Z,85.50
2018-09-18T22:30:56.361Z,85.20
2018-09-18T22:33:24.840Z,85.60
2018-09-18T22:35:53.410Z,85.40
2018-09-18T22:38:21.851Z,84.30
2018-09-18T22:40:50.359Z,85.10
2018-09-18T22:43:18.827Z,86.50
2018-09-18T22:45:47.366Z,86.90
2018-09-18T22:48:15.858Z,87.10
2018-09-18T22:50:44.359Z,87.40
2018-09-18T22:53:12.830Z,87.50
2018-09-18T22:55:41.307Z,87.60
2018-09-18T22:58:09.798Z,87.70
2018-09-18T23:00:38.282Z,87.60
2018-09-18T23:03:06.729Z,87.70
2018-09-18T23:05:35.211Z,87.80
2018-09-18T23:08:03.691Z,87.60
2018-09-18T23:10:32.191Z,87.00
2018-09-18T23:13:00.703Z,86.70
2018-09-18T23:15:29.603Z,86.40
2018-09-18T23:17:58.055Z,86.70
2018-09-18T23:20:26.517Z,88.50
2018-09-18T23:22:55.012Z,88.50
2018-09-18T23:25:23.474Z,88.50
2018-09-18T23:27:52.017Z,88.90
2018-09-18T23:30:20.492Z,89.40
2018-09-18T23:32:48.989Z,89.50
2018-09-18T23:35:17.496Z,89.50
2018-09-18T23:37:45.946Z,89.50
2018-09-18T23:40:14.553Z,89.50
2018-09-18T23:42:43.068Z,89.50
2018-09-18T23:45:11.562Z,89.50
2018-09-18T23:47:40.087Z,89.70
2018-09-18T23:50:08.550Z,89.80
2018-09-18T23:52:37.041Z,90.00
2018-09-18T23:55:05.568Z,89.90
2018-09-18T23:57:34.076Z,89.80
